Time;durP1;ratioP1;P1;durP2;ratioP2;P2;SDS_P1;SDS_P2;PMS_P1;PMS_P2;Temp;Humidity;BMP_temperature;BMP_pressure;BME280_temperature;BME280_humidity;BME280_pressure;Samples;Min_cycle;Max_cycle;Signal;HPM_P1;HPM_P2
2022/02/22 00:00:09;;;;;;;20.23;4.57;;;;;;;5.01;100.00;101549.94;5095221;28;20040;-55
2022/02/22 00:02:39;;;;;;;28.13;3.78;;;;;;;4.97;100.00;101561.34;5095310;28;20074;-56
2022/02/22 00:05:09;;;;;;;33.63;4.40;;;;;;;5.01;100.00;101576.00;5095058;28;20055;-55
2022/02/22 00:07:37;;;;;;;21.33;3.63;;;;;;;5.01;100.00;101581.22;5094946;28;20083;-56
2022/02/22 00:10:08;;;;;;;23.98;4.35;;;;;;;5.02;100.00;101569.91;5092430;28;20093;-44
2022/02/22 00:12:36;;;;;;;26.30;3.55;;;;;;;5.03;100.00;101580.28;5091647;28;20044;-53
2022/02/22 00:15:05;;;;;;;25.73;3.55;;;;;;;5.03;100.00;101582.00;5093772;28;20063;-55
2022/02/22 00:17:33;;;;;;;27.42;4.55;;;;;;;5.03;100.00;101577.66;5094738;28;20062;-55
2022/02/22 00:20:05;;;;;;;25.70;3.80;;;;;;;5.04;100.00;101588.94;5095293;28;20052;-45
2022/02/22 00:22:34;;;;;;;27.67;4.40;;;;;;;5.09;100.00;101584.44;5094906;28;20051;-55
2022/02/22 00:25:02;;;;;;;25.88;3.50;;;;;;;5.10;100.00;101587.88;5092406;28;20425;-54
2022/02/22 00:27:31;;;;;;;25.08;4.00;;;;;;;5.08;100.00;101598.38;5091581;28;20440;-56
2022/02/22 00:30:01;;;;;;;18.50;3.33;;;;;;;5.08;100.00;101594.03;5093266;28;20101;-54
2022/02/22 00:32:29;;;;;;;23.02;4.25;;;;;;;5.08;100.00;101596.63;5094637;28;20044;-44
2022/02/22 00:34:57;;;;;;;26.88;3.58;;;;;;;5.05;100.00;101606.28;5094456;28;20077;-44
2022/02/22 00:37:26;;;;;;;23.85;3.63;;;;;;;5.07;100.00;101599.25;5094365;28;20089;-44
2022/02/22 00:39:55;;;;;;;22.13;3.67;;;;;;;5.00;100.00;101602.97;5093896;28;20086;-54
2022/02/22 00:42:25;;;;;;;22.23;3.65;;;;;;;4.99;100.00;101609.94;5093975;28;20067;-52
2022/02/22 00:44:53;;;;;;;23.60;4.45;;;;;;;5.02;100.00;101617.66;5094281;28;20052;-55
2022/02/22 00:47:22;;;;;;;21.05;4.43;;;;;;;5.02;100.00;101622.03;5094140;28;20059;-42
2022/02/22 00:49:52;;;;;;;23.98;3.30;;;;;;;4.96;100.00;101614.38;5094572;28;20437;-45
2022/02/22 00:52:20;;;;;;;22.88;4.13;;;;;;;4.93;100.00;101630.13;5094333;28;20097;-54
2022/02/22 00:54:50;;;;;;;22.10;3.17;;;;;;;4.96;100.00;101624.81;5094033;28;20536;-54
2022/02/22 00:57:18;;;;;;;24.60;3.97;;;;;;;4.96;100.00;101624.81;5094073;28;20449;-46
2022/02/22 00:59:46;;;;;;;24.88;3.08;;;;;;;4.94;100.00;101631.84;5093999;28;20048;-44
2022/02/22 01:02:14;;;;;;;20.00;3.40;;;;;;;4.91;100.00;101633.63;5090629;28;20079;-48
2022/02/22 01:04:42;;;;;;;31.83;3.92;;;;;;;4.88;100.00;101638.06;5090797;28;20093;-45
2022/02/22 01:07:16;;;;;;;29.50;3.72;;;;;;;4.85;100.00;101649.44;5093291;28;20366;-45
2022/02/22 01:09:44;;;;;;;25.15;4.70;;;;;;;4.86;100.00;101660.72;5094187;28;20055;-44
2022/02/22 01:12:15;;;;;;;25.73;3.03;;;;;;;4.84;100.00;101654.69;5093708;28;20063;-42
2022/02/22 01:14:45;;;;;;;23.23;3.38;;;;;;;4.80;100.00;101646.13;5093609;28;20044;-43
2022/02/22 01:17:13;;;;;;;23.95;3.88;;;;;;;4.79;100.00;101653.97;5093893;28;20052;-43
2022/02/22 01:19:41;;;;;;;20.00;3.78;;;;;;;4.77;100.00;101654.00;5093639;28;20055;-45
2022/02/22 01:22:10;;;;;;;24.23;4.30;;;;;;;4.69;100.00;101656.84;5090082;28;20043;-42
2022/02/22 01:24:38;;;;;;;27.30;4.35;;;;;;;4.72;100.00;101663.72;5091253;28;20040;-43
2022/02/22 01:27:06;;;;;;;22.17;3.30;;;;;;;4.76;100.00;101659.25;5093696;28;20064;-44
2022/02/22 01:29:36;;;;;;;26.25;4.20;;;;;;;4.72;100.00;101668.94;5093587;28;20368;-44
2022/02/22 01:32:05;;;;;;;24.70;4.03;;;;;;;4.73;100.00;101676.69;5093526;28;20044;-44
2022/02/22 01:34:33;;;;;;;25.88;3.28;;;;;;;4.76;100.00;101680.97;5093272;28;20475;-43
2022/02/22 01:37:01;;;;;;;29.00;4.22;;;;;;;4.67;100.00;101676.84;5093143;28;20047;-49
2022/02/22 01:39:29;;;;;;;26.65;3.42;;;;;;;4.64;100.00;101676.94;5093555;28;20052;-45
2022/02/22 01:41:57;;;;;;;22.33;3.55;;;;;;;4.61;100.00;101674.44;5092707;28;20108;-43
2022/02/22 01:44:26;;;;;;;26.88;3.67;;;;;;;4.65;100.00;101677.78;5093186;28;20386;-45
2022/02/22 01:46:57;;;;;;;30.45;3.85;;;;;;;4.61;100.00;101678.75;5093080;28;20390;-42
2022/02/22 01:49:25;;;;;;;30.20;4.25;;;;;;;4.57;100.00;101671.03;5093150;28;20116;-43
2022/02/22 01:51:54;;;;;;;26.02;4.82;;;;;;;4.53;100.00;101673.78;5093228;28;20044;-44
2022/02/22 01:54:23;;;;;;;21.55;3.40;;;;;;;4.47;100.00;101669.59;5092558;28;20036;-44
2022/02/22 01:56:51;;;;;;;27.58;4.50;;;;;;;4.46;100.00;101669.59;5092156;28;20117;-49
2022/02/22 01:59:19;;;;;;;30.00;4.10;;;;;;;4.40;100.00;101665.41;5091517;28;20052;-48
2022/02/22 02:01:47;;;;;;;19.60;3.25;;;;;;;4.41;100.00;101669.75;5091991;28;20495;-47
2022/02/22 02:04:17;;;;;;;22.20;3.95;;;;;;;4.38;100.00;101667.22;5089489;28;20700;-44
2022/02/22 02:06:46;;;;;;;23.20;3.72;;;;;;;4.36;100.00;101666.38;5090656;28;20062;-46
2022/02/22 02:09:14;;;;;;;21.83;4.07;;;;;;;4.34;100.00;101668.19;5092650;28;20048;-54
2022/02/22 02:11:44;;;;;;;24.60;3.70;;;;;;;4.27;100.00;101680.50;5092798;28;20070;-53
2022/02/22 02:14:13;;;;;;;23.83;4.25;;;;;;;4.26;100.00;101667.53;5092542;28;20044;-52
2022/02/22 02:16:41;;;;;;;23.40;3.00;;;;;;;4.16;100.00;101675.56;5093136;28;20444;-52
2022/02/22 02:19:10;;;;;;;27.35;3.88;;;;;;;4.20;100.00;101686.78;5092703;28;20048;-55
2022/02/22 02:21:41;;;;;;;24.23;4.38;;;;;;;4.15;100.00;101699.91;5091002;28;20102;-54
2022/02/22 02:24:15;;;;;;;25.50;3.38;;;;;;;4.11;100.00;101684.41;5088570;28;20040;-54
2022/02/22 02:26:44;;;;;;;27.17;3.58;;;;;;;4.09;100.00;101694.84;5092316;28;20056;-53
2022/02/22 02:29:14;;;;;;;21.08;4.15;;;;;;;4.08;100.00;101687.94;5092603;28;20040;-55
2022/02/22 02:31:44;;;;;;;26.17;3.50;;;;;;;4.04;100.00;101694.09;5089818;28;20060;-55
2022/02/22 02:34:14;;;;;;;29.88;3.35;;;;;;;4.04;100.00;101696.72;5089059;28;20482;-54
2022/02/22 02:36:43;;;;;;;26.05;4.00;;;;;;;3.95;100.00;101695.16;5091729;28;20071;-52
2022/02/22 02:39:14;;;;;;;23.55;3.97;;;;;;;3.87;100.00;101692.75;5092634;28;20058;-54
2022/02/22 02:41:43;;;;;;;25.90;3.42;;;;;;;3.85;100.00;101697.13;5092276;28;20055;-53
2022/02/22 02:44:14;;;;;;;20.17;3.35;;;;;;;3.80;100.00;101687.72;5090327;28;20557;-43
2022/02/22 02:46:42;;;;;;;23.52;3.25;;;;;;;3.76;100.00;101686.94;5086687;28;20122;-45
2022/02/22 02:49:12;;;;;;;26.35;3.92;;;;;;;3.69;100.00;101681.00;5091113;28;20052;-53
2022/02/22 02:51:40;;;;;;;16.20;3.30;;;;;;;3.68;100.00;101688.84;5092422;28;20432;-54
2022/02/22 02:54:09;;;;;;;28.67;4.22;;;;;;;3.70;100.00;101681.88;5095934;28;20470;-51
2022/02/22 02:56:40;;;;;;;28.70;4.22;;;;;;;3.67;100.00;101688.00;5095400;28;20055;-55
2022/02/22 02:59:10;;;;;;;21.58;3.58;;;;;;;3.66;100.00;101685.44;5093001;28;20056;-54
2022/02/22 03:01:41;;;;;;;29.02;4.30;;;;;;;3.57;100.00;101693.47;5091828;28;20052;-47
2022/02/22 03:04:09;;;;;;;22.00;3.95;;;;;;;3.61;100.00;101701.16;5095897;28;20398;-43
2022/02/22 03:06:37;;;;;;;23.00;4.13;;;;;;;3.51;100.00;101702.25;5096370;28;20635;-53
2022/02/22 03:09:06;;;;;;;28.25;4.47;;;;;;;3.47;100.00;101704.06;5096470;28;20055;-53
2022/02/22 03:11:34;;;;;;;23.70;3.30;;;;;;;3.48;100.00;101708.38;5094406;28;20040;-54
2022/02/22 03:14:04;;;;;;;26.17;4.85;;;;;;;3.46;100.00;101702.34;5092284;28;20098;-53
2022/02/22 03:16:32;;;;;;;30.40;3.60;;;;;;;3.39;100.00;101700.75;5094919;28;20040;-54
2022/02/22 03:19:02;;;;;;;23.10;3.47;;;;;;;3.37;100.00;101700.81;5092449;28;20503;-53
2022/02/22 03:21:34;;;;;;;33.70;4.80;;;;;;;3.33;100.00;101703.50;5093767;28;20036;-53
2022/02/22 03:24:02;;;;;;;21.75;3.00;;;;;;;3.33;100.00;101703.50;5095706;28;20059;-55
2022/02/22 03:26:31;;;;;;;22.20;3.65;;;;;;;3.30;100.00;101699.22;5095976;28;20048;-56
2022/02/22 03:28:59;;;;;;;25.75;3.90;;;;;;;3.28;100.00;101707.94;5086555;28;20044;-55
2022/02/22 03:31:30;;;;;;;23.55;3.38;;;;;;;3.32;100.00;101714.78;5062363;28;20045;-47
2022/02/22 03:33:59;;;;;;;25.70;3.80;;;;;;;3.26;100.00;101712.31;5067220;28;20041;-47
2022/02/22 03:36:27;;;;;;;24.00;3.30;;;;;;;3.20;100.00;101702.91;5057752;28;20041;-43
2022/02/22 03:38:56;;;;;;;32.20;4.30;;;;;;;3.20;100.00;101708.09;5073045;28;20104;-42
2022/02/22 03:41:27;;;;;;;25.67;3.70;;;;;;;3.14;100.00;101706.47;5064393;28;20060;-44
2022/02/22 03:43:55;;;;;;;23.02;4.15;;;;;;;3.15;100.00;101720.31;5070557;28;20048;-46
2022/02/22 03:46:24;;;;;;;23.02;3.22;;;;;;;3.14;100.00;101719.47;5067737;28;20067;-42
2022/02/22 03:48:53;;;;;;;21.48;3.10;;;;;;;3.09;100.00;101720.47;5062501;28;20052;-43
2022/02/22 03:51:27;;;;;;;24.17;3.55;;;;;;;3.15;100.00;101718.59;5062687;28;20106;-44
2022/02/22 03:53:55;;;;;;;18.58;3.10;;;;;;;3.11;100.00;101724.75;5068754;28;20040;-44
2022/02/22 03:56:23;;;;;;;26.33;3.67;;;;;;;3.04;100.00;101715.34;5069858;28;20421;-46
2022/02/22 03:58:51;;;;;;;30.65;5.00;;;;;;;3.06;100.00;101715.34;5071384;28;20048;-43
2022/02/22 04:01:19;;;;;;;24.42;3.95;;;;;;;3.03;100.00;101718.84;5059790;28;20048;-42
2022/02/22 04:03:47;;;;;;;24.58;3.97;;;;;;;3.02;100.00;101719.72;5072344;28;20434;-42
2022/02/22 04:06:16;;;;;;;25.30;3.55;;;;;;;3.05;100.00;101717.06;5074077;28;20083;-45
2022/02/22 04:08:45;;;;;;;19.00;3.22;;;;;;;3.04;100.00;101725.72;5074508;28;20060;-45
2022/02/22 04:11:13;;;;;;;21.52;3.40;;;;;;;3.07;100.00;101736.09;5074776;28;20052;-46
2022/02/22 04:13:41;;;;;;;19.33;3.97;;;;;;;3.09;100.00;101736.91;5074833;28;20049;-44
2022/02/22 04:16:09;;;;;;;29.10;3.60;;;;;;;3.08;100.00;101735.22;5075167;28;20048;-45
2022/02/22 04:18:37;;;;;;;20.52;3.08;;;;;;;3.09;100.00;101730.88;5072037;28;20057;-42
2022/02/22 04:21:05;;;;;;;29.27;3.25;;;;;;;3.08;100.00;101734.34;5071008;28;20056;-44
2022/02/22 04:23:35;;;;;;;22.35;4.18;;;;;;;3.06;100.00;101746.53;5073276;28;20151;-45
2022/02/22 04:26:03;;;;;;;22.55;3.35;;;;;;;3.08;100.00;101740.41;5074550;28;20060;-46
2022/02/22 04:28:31;;;;;;;19.80;3.08;;;;;;;3.07;100.00;101750.81;5073510;28;20041;-43
2022/02/22 04:30:59;;;;;;;25.65;3.63;;;;;;;3.03;100.00;101747.44;5074544;28;20052;-47
2022/02/22 04:33:27;;;;;;;28.30;3.70;;;;;;;3.03;100.00;101739.63;5071900;28;20491;-45
2022/02/22 04:35:55;;;;;;;17.42;3.42;;;;;;;3.06;100.00;101746.53;5070583;28;20388;-44
2022/02/22 04:38:23;;;;;;;17.63;3.25;;;;;;;3.04;100.00;101747.41;5074247;28;20048;-45
2022/02/22 04:40:55;;;;;;;21.55;3.10;;;;;;;3.04;100.00;101743.94;5074154;28;20083;-46
2022/02/22 04:43:24;;;;;;;24.13;3.80;;;;;;;3.01;100.00;101747.47;5074196;28;20086;-46
2022/02/22 04:45:52;;;;;;;26.83;4.28;;;;;;;3.04;100.00;101757.81;5073442;28;20060;-44
2022/02/22 04:48:20;;;;;;;22.90;3.25;;;;;;;3.02;100.00;101761.31;5073233;28;20511;-43
2022/02/22 04:50:48;;;;;;;22.70;3.53;;;;;;;3.02;100.00;101766.50;5068500;28;20400;-42
2022/02/22 04:53:16;;;;;;;20.75;2.78;;;;;;;3.08;100.00;101758.59;5071335;28;20040;-43
2022/02/22 04:55:45;;;;;;;24.70;4.18;;;;;;;3.05;100.00;101766.44;5073566;28;20049;-54
2022/02/22 04:58:14;;;;;;;17.92;2.90;;;;;;;3.01;100.00;101752.66;5071158;28;20074;-43
2022/02/22 05:00:42;;;;;;;22.65;4.25;;;;;;;3.00;100.00;101758.75;5069947;28;20045;-44
2022/02/22 05:03:10;;;;;;;20.83;2.83;;;;;;;3.00;100.00;101757.88;5071949;28;20068;-43
2022/02/22 05:05:39;;;;;;;17.73;3.40;;;;;;;2.96;100.00;101745.81;5073763;28;20048;-55
2022/02/22 05:08:07;;;;;;;19.52;2.90;;;;;;;2.94;100.00;101753.66;5073657;28;20158;-56
2022/02/22 05:10:35;;;;;;;20.00;2.88;;;;;;;2.93;100.00;101753.69;5073457;28;20044;-56
2022/02/22 05:13:03;;;;;;;27.88;3.58;;;;;;;2.88;100.00;101749.44;5073574;28;20037;-47
2022/02/22 05:15:33;;;;;;;24.35;3.45;;;;;;;2.93;100.00;101756.28;5069017;28;20055;-45
2022/02/22 05:18:04;;;;;;;21.40;4.60;;;;;;;2.85;100.00;101753.81;5069545;28;20083;-55
2022/02/22 05:20:33;;;;;;;29.38;4.13;;;;;;;2.85;100.00;101754.69;5073393;28;20468;-55
2022/02/22 05:23:01;;;;;;;24.40;4.18;;;;;;;2.86;100.00;101755.53;5070864;28;20040;-46
2022/02/22 05:25:30;;;;;;;14.98;2.78;;;;;;;2.81;100.00;101750.44;5069924;28;20473;-44
2022/02/22 05:27:58;;;;;;;19.63;2.83;;;;;;;2.80;100.00;101756.50;5072584;28;20052;-56
2022/02/22 05:30:26;;;;;;;18.92;3.13;;;;;;;2.79;100.00;101770.38;5072898;28;20453;-54
2022/02/22 05:32:55;;;;;;;24.35;3.75;;;;;;;2.76;100.00;101770.44;5072873;28;21221;-55
2022/02/22 05:35:23;;;;;;;26.50;4.30;;;;;;;2.75;100.00;101770.47;5072542;28;20433;-53
2022/02/22 05:37:51;;;;;;;25.00;3.17;;;;;;;2.68;100.00;101767.13;5072609;28;20040;-54
2022/02/22 05:40:19;;;;;;;17.95;3.03;;;;;;;2.72;100.00;101768.78;5072614;28;20036;-54
2022/02/22 05:42:48;;;;;;;21.13;3.45;;;;;;;2.72;100.00;101766.19;5069289;28;20044;-47
2022/02/22 05:45:16;;;;;;;21.48;3.63;;;;;;;2.66;100.00;101764.56;5070877;28;20420;-47
2022/02/22 05:47:44;;;;;;;23.50;3.83;;;;;;;2.66;100.00;101766.31;5071491;28;20632;-48
2022/02/22 05:50:14;;;;;;;21.85;3.08;;;;;;;2.66;100.00;101769.75;5073138;28;20056;-42
2022/02/22 05:52:42;;;;;;;21.88;3.88;;;;;;;2.63;100.00;101772.41;5071548;28;20052;-43
2022/02/22 05:55:10;;;;;;;21.35;3.10;;;;;;;2.62;100.00;101769.81;5072932;28;20040;-45
2022/02/22 05:57:39;;;;;;;15.98;2.78;;;;;;;2.56;100.00;101762.13;5072566;28;20051;-45
2022/02/22 06:00:08;;;;;;;17.85;3.33;;;;;;;2.56;100.00;101762.13;5071202;28;20177;-44
2022/02/22 06:02:37;;;;;;;26.83;3.00;;;;;;;2.52;100.00;101762.19;5068324;28;20083;-45
2022/02/22 06:05:05;;;;;;;26.33;4.00;;;;;;;2.47;100.00;101758.81;5071604;28;20071;-43
2022/02/22 06:07:35;;;;;;;17.67;2.67;;;;;;;2.47;100.00;101763.16;5072761;28;20510;-43
2022/02/22 06:10:04;;;;;;;23.02;4.63;;;;;;;2.43;100.00;101761.50;5072749;28;20048;-43
2022/02/22 06:12:32;;;;;;;23.63;3.30;;;;;;;2.44;100.00;101766.66;5073115;28;20064;-47
2022/02/22 06:15:00;;;;;;;27.58;3.42;;;;;;;2.41;100.00;101764.09;5072745;28;20485;-45
2022/02/22 06:17:28;;;;;;;21.83;3.03;;;;;;;2.46;100.00;101767.47;5072398;28;20499;-44
2022/02/22 06:19:57;;;;;;;14.20;2.72;;;;;;;2.39;100.00;101771.06;5072518;28;20040;-44
2022/02/22 06:22:25;;;;;;;19.60;3.33;;;;;;;2.38;100.00;101771.94;5071473;28;20063;-43
2022/02/22 06:24:54;;;;;;;22.33;3.67;;;;;;;2.34;100.00;101765.94;5069049;28;20139;-43
2022/02/22 06:27:22;;;;;;;19.92;3.42;;;;;;;2.34;100.00;101780.66;5070239;28;20048;-46
2022/02/22 06:29:51;;;;;;;20.30;3.65;;;;;;;2.28;100.00;101780.78;5072326;28;20044;-43
2022/02/22 06:32:19;;;;;;;23.38;3.47;;;;;;;2.26;100.00;101779.91;5072575;28;20487;-44
2022/02/22 06:34:47;;;;;;;19.65;2.92;;;;;;;2.24;100.00;101781.69;5070361;28;20395;-44
2022/02/22 06:37:20;;;;;;;19.70;3.05;;;;;;;2.20;100.00;101789.50;5067736;28;20056;-43
2022/02/22 06:39:48;;;;;;;25.17;3.38;;;;;;;2.23;100.00;101783.41;5070051;28;20105;-43
2022/02/22 06:42:17;;;;;;;20.65;3.25;;;;;;;2.22;100.00;101780.84;5071216;28;20059;-43
2022/02/22 06:44:45;;;;;;;24.30;3.60;;;;;;;2.21;100.00;101787.78;5072267;28;20079;-46
2022/02/22 06:47:13;;;;;;;21.58;3.85;;;;;;;2.25;100.00;101793.78;5072061;28;20052;-46
2022/02/22 06:49:41;;;;;;;21.73;3.28;;;;;;;2.30;100.00;101784.19;5072075;28;20052;-48
2022/02/22 06:52:12;;;;;;;21.75;4.07;;;;;;;2.32;100.00;101785.03;5071967;28;20055;-55
2022/02/22 06:54:40;;;;;;;20.70;3.20;;;;;;;2.32;100.00;101779.84;5071958;28;20071;-44
2022/02/22 06:57:08;;;;;;;18.05;3.33;;;;;;;2.29;100.00;101774.69;5072013;28;20075;-45
2022/02/22 06:59:38;;;;;;;19.55;3.30;;;;;;;2.30;100.00;101779.00;5071740;28;20057;-48
2022/02/22 07:02:06;;;;;;;25.77;3.70;;;;;;;2.29;100.00;101780.75;5072015;28;20060;-45
2022/02/22 07:04:34;;;;;;;22.13;3.65;;;;;;;2.30;100.00;101784.19;5071956;28;20071;-46
2022/02/22 07:07:06;;;;;;;26.25;3.97;;;;;;;2.33;100.00;101785.00;5072121;28;20140;-56
2022/02/22 07:09:35;;;;;;;15.07;3.47;;;;;;;2.36;100.00;101782.34;5068995;28;20057;-54
2022/02/22 07:12:03;;;;;;;19.40;3.58;;;;;;;2.37;100.00;101780.59;5067894;28;20049;-44
2022/02/22 07:14:31;;;;;;;22.58;3.13;;;;;;;2.42;100.00;101781.41;5071787;28;20049;-56
2022/02/22 07:17:01;;;;;;;13.20;3.25;;;;;;;2.45;100.00;101777.91;5071664;28;20041;-48
2022/02/22 07:19:30;;;;;;;24.33;3.97;;;;;;;2.50;100.00;101781.28;5071742;28;20475;-43
2022/02/22 07:21:58;;;;;;;18.55;3.25;;;;;;;2.58;100.00;101763.81;5071715;28;20047;-43
2022/02/22 07:24:26;;;;;;;20.65;3.08;;;;;;;2.67;100.00;101774.06;5071486;28;20123;-55
2022/02/22 07:26:55;;;;;;;21.30;3.95;;;;;;;2.72;100.00;101768.78;5068027;28;20048;-44
2022/02/22 07:29:23;;;;;;;17.25;3.03;;;;;;;2.78;100.00;101773.88;5069382;28;20068;-49
2022/02/22 07:31:51;;;;;;;22.75;3.53;;;;;;;2.84;100.00;101770.31;5071649;28;20047;-44
2022/02/22 07:34:21;;;;;;;16.05;2.95;;;;;;;2.88;100.00;101761.56;5069443;28;20036;-45
2022/02/22 07:36:50;;;;;;;17.83;3.38;;;;;;;2.93;100.00;101758.88;5066600;28;20064;-44
2022/02/22 07:39:18;;;;;;;20.00;3.00;;;;;;;2.98;100.00;101749.25;5071639;28;20049;-55
2022/02/22 07:41:46;;;;;;;22.67;3.75;;;;;;;2.98;100.00;101747.50;5074716;28;20410;-46
2022/02/22 07:44:14;;;;;;;19.85;3.15;;;;;;;2.99;100.00;101746.63;5071290;28;20110;-46
2022/02/22 07:46:43;;;;;;;25.23;3.05;;;;;;;3.02;100.00;101748.31;5072383;28;20057;-55
2022/02/22 07:49:12;;;;;;;26.50;3.55;;;;;;;3.05;100.00;101748.25;5072327;28;20056;-46
2022/02/22 07:51:41;;;;;;;22.73;3.65;;;;;;;3.13;100.00;101743.75;5071095;28;20056;-45
2022/02/22 07:54:10;;;;;;;25.10;3.97;;;;;;;3.10;100.00;101738.63;5074595;28;20119;-46
2022/02/22 07:56:38;;;;;;;19.23;3.80;;;;;;;3.20;100.00;101731.50;5075008;28;20040;-46
2022/02/22 07:59:06;;;;;;;20.08;3.22;;;;;;;3.25;100.00;101721.88;5072580;28;20041;-44
2022/02/22 08:01:34;;;;;;;13.65;2.80;;;;;;;3.29;100.00;101728.72;5069675;28;20048;-55
2022/02/22 08:04:03;;;;;;;16.08;2.90;;;;;;;3.33;100.00;101724.31;5073836;28;20040;-54
2022/02/22 08:06:31;;;;;;;14.25;3.15;;;;;;;3.47;100.00;101722.25;5074775;28;20048;-54
2022/02/22 08:09:00;;;;;;;16.77;3.58;;;;;;;3.49;100.00;101724.81;5074772;28;20045;-44
2022/02/22 08:11:31;;;;;;;15.38;3.08;;;;;;;3.58;100.00;101714.22;5074661;28;20132;-43
2022/02/22 08:14:00;;;;;;;17.05;2.53;;;;;;;3.68;100.00;101714.88;5074577;28;20045;-55
2022/02/22 08:16:29;;;;;;;17.48;2.95;;;;;;;3.78;100.00;101713.78;5074583;28;20041;-55
2022/02/22 08:19:01;;;;;;;21.75;3.35;;;;;;;3.93;100.00;101714.31;5073491;28;20040;-55
2022/02/22 08:21:29;;;;;;;18.45;3.60;;;;;;;3.96;100.00;101709.91;5071159;28;20060;-44
2022/02/22 08:23:57;;;;;;;20.65;3.53;;;;;;;4.11;100.00;101719.09;5072125;28;20498;-46
2022/02/22 08:26:38;;;;;;;26.15;3.67;;;;;;;4.15;100.00;101714.69;5074316;28;20146;-44
2022/02/22 08:29:07;;;;;;;13.80;3.40;;;;;;;4.21;100.00;101715.38;5074193;28;20127;-54
2022/02/22 08:31:35;;;;;;;23.70;4.05;;;;;;;4.30;100.00;101710.84;5074469;28;20063;-55
2022/02/22 08:34:03;;;;;;;17.65;3.55;;;;;;;4.39;100.00;101707.97;5074409;28;20071;-55
2022/02/22 08:36:31;;;;;;;21.83;3.58;;;;;;;4.43;100.00;101701.81;5074367;28;20548;-44
2022/02/22 08:39:00;;;;;;;21.73;3.97;;;;;;;4.51;100.00;101697.28;5073102;28;20051;-44
2022/02/22 08:41:29;;;;;;;20.10;3.85;;;;;;;4.54;100.00;101697.19;5070986;28;20040;-44
2022/02/22 08:44:01;;;;;;;14.07;3.17;;;;;;;4.59;100.00;101689.22;5070431;28;20437;-45
2022/02/22 08:46:30;;;;;;;15.73;3.30;;;;;;;4.65;100.00;101680.38;5074051;28;20090;-55
2022/02/22 08:49:00;;;;;;;15.00;4.05;;;;;;;4.73;100.00;101679.31;5074234;28;20119;-44
2022/02/22 08:51:28;;;;;;;16.02;4.43;;;;;;;4.84;100.00;101678.13;5072555;28;20056;-47
2022/02/22 08:53:56;;;;;;;21.00;4.68;;;;;;;4.95;100.00;101680.44;5074234;28;20114;-56
2022/02/22 08:56:25;;;;;;;15.43;3.92;;;;;;;5.07;100.00;101669.66;5073850;28;20127;-56
2022/02/22 08:58:53;;;;;;;21.05;4.00;;;;;;;5.09;100.00;101670.50;5072610;28;20488;-45
2022/02/22 09:01:23;;;;;;;19.83;4.30;;;;;;;5.13;100.00;101661.69;5069094;28;20051;-55
2022/02/22 09:03:52;;;;;;;16.90;4.20;;;;;;;5.17;100.00;101657.25;5072104;28;20076;-56
2022/02/22 09:06:20;;;;;;;25.83;4.20;;;;;;;5.38;100.00;101653.13;5073873;28;20131;-55
2022/02/22 09:08:48;;;;;;;26.05;5.38;;;;;;;5.45;100.00;101649.41;5073714;28;20048;-54
2022/02/22 09:11:16;;;;;;;21.13;4.18;;;;;;;5.49;100.00;101653.63;5072997;28;20472;-43
2022/02/22 09:13:45;;;;;;;18.50;4.28;;;;;;;5.67;100.00;101652.22;5070021;28;20044;-54
2022/02/22 09:16:13;;;;;;;24.70;4.60;;;;;;;5.73;100.00;101648.56;5071304;28;20475;-45
2022/02/22 09:18:43;;;;;;;28.10;4.25;;;;;;;5.79;100.00;101647.50;5073332;28;20044;-44
2022/02/22 09:21:11;;;;;;;15.27;3.78;;;;;;;5.93;100.00;101640.94;5073361;28;20052;-46
2022/02/22 09:23:39;;;;;;;28.63;4.72;;;;;;;5.93;100.00;101640.94;5073200;28;20098;-54
2022/02/22 09:26:08;;;;;;;21.00;4.45;;;;;;;6.12;100.00;101647.31;5071919;28;20365;-54
2022/02/22 09:28:36;;;;;;;17.90;4.18;;;;;;;6.08;100.00;101643.97;5070607;28;20060;-55
2022/02/22 09:31:04;;;;;;;19.02;4.47;;;;;;;6.16;100.00;101630.66;5071949;28;20056;-55
2022/02/22 09:33:32;;;;;;;18.75;3.88;;;;;;;6.21;100.00;101621.75;5073268;28;20048;-43
2022/02/22 09:36:02;;;;;;;22.98;5.20;;;;;;;6.23;100.00;101622.56;5073319;28;20045;-54
2022/02/22 09:38:31;;;;;;;23.40;6.22;;;;;;;6.36;100.00;101622.97;5071705;28;20044;-54
2022/02/22 09:41:01;;;;;;;21.60;4.63;;;;;;;6.38;100.00;101615.94;5072865;28;20466;-54
2022/02/22 09:43:29;;;;;;;23.17;4.55;;;;;;;6.44;100.00;101614.88;5071006;28;20052;-49
2022/02/22 09:45:57;;;;;;;24.30;5.18;;;;;;;6.44;100.00;101614.88;5068450;28;20540;-55
2022/02/22 09:48:26;;;;;;;26.20;4.85;;;;;;;6.48;100.00;101615.63;5071490;28;20117;-53
2022/02/22 09:50:54;;;;;;;23.92;5.38;;;;;;;6.50;100.00;101613.78;5072690;28;20102;-54
2022/02/22 09:53:24;;;;;;;17.60;4.35;;;;;;;6.49;100.00;101618.19;5073075;28;20052;-44
2022/02/22 09:55:52;;;;;;;21.77;3.72;;;;;;;6.49;100.00;101623.41;5072883;28;20495;-45
2022/02/22 09:58:20;;;;;;;20.10;3.78;;;;;;;6.50;100.00;101616.41;5072897;28;20053;-54
2022/02/22 10:00:58;;;;;;;21.70;4.15;;;;;;;6.48;100.00;101632.16;5072275;28;20044;-53
2022/02/22 10:03:26;;;;;;;23.55;5.68;;;;;;;6.52;100.00;101633.75;5067557;28;20044;-42
2022/02/22 10:05:56;;;;;;;14.77;3.75;;;;;;;6.55;100.00;101644.09;5069804;28;20052;-44
2022/02/22 10:08:27;;;;;;;18.02;3.88;;;;;;;6.59;100.00;101645.69;5072218;28;20131;-48
2022/02/22 10:11:04;;;;;;;24.00;4.75;;;;;;;6.58;100.00;101645.75;5071118;28;20059;-56
2022/02/22 10:13:33;;;;;;;20.55;4.25;;;;;;;6.69;100.00;101642.75;5072174;28;20036;-55
2022/02/22 10:16:08;;;;;;;19.38;4.85;;;;;;;6.65;100.00;101639.38;5072201;28;20076;-49
2022/02/22 10:18:46;;;;;;;22.90;4.45;;;;;;;6.58;100.00;101633.50;5072195;28;20043;-56
2022/02/22 10:21:14;;;;;;;21.63;4.22;;;;;;;6.64;100.00;101631.59;5072312;28;20497;-44
2022/02/22 10:23:44;;;;;;;23.55;3.92;;;;;;;6.65;100.00;101626.31;5072607;28;20894;-42
2022/02/22 10:26:21;;;;;;;18.75;4.35;;;;;;;6.75;100.00;101627.69;5072090;28;20055;-42
2022/02/22 10:28:49;;;;;;;21.80;4.20;;;;;;;6.80;100.00;101611.81;5072440;28;20564;-53
2022/02/22 10:31:17;;;;;;;14.07;3.67;;;;;;;6.88;100.00;101599.31;5072287;28;20067;-54
2022/02/22 10:33:46;;;;;;;21.15;4.75;;;;;;;6.77;100.00;101581.41;5072595;28;20048;-54
2022/02/22 10:36:36;;;;;;;21.48;5.82;;;;;;;6.81;100.00;101581.31;5072086;28;20068;-54
2022/02/22 10:39:07;;;;;;;23.27;4.97;;;;;;;6.76;100.00;101582.34;5072237;28;20119;-43
2022/02/22 10:41:36;;;;;;;17.50;3.60;;;;;;;6.87;100.00;101563.63;5070610;28;20123;-45
2022/02/22 10:44:06;;;;;;;23.40;5.65;;;;;;;6.83;100.00;101558.56;5068582;28;20608;-44
2022/02/22 10:46:37;;;;;;;21.95;3.72;;;;;;;6.86;100.00;101563.69;5070411;28;20139;-53
2022/02/22 10:49:09;;;;;;;21.92;5.07;;;;;;;6.87;100.00;101571.47;5072101;28;20041;-53
2022/02/22 10:51:41;;;;;;;17.50;4.05;;;;;;;6.86;100.00;101575.00;5071725;28;20383;-42
2022/02/22 10:54:17;;;;;;;20.40;3.83;;;;;;;6.86;100.00;101575.00;5072191;28;20502;-43
2022/02/22 10:56:46;;;;;;;27.02;5.80;;;;;;;6.86;100.00;101561.91;5069361;28;20064;-54
2022/02/22 10:59:18;;;;;;;20.40;4.13;;;;;;;6.85;100.00;101554.97;5068139;28;20122;-54
2022/02/22 11:01:49;;;;;;;25.65;4.35;;;;;;;6.81;100.00;101553.41;5071779;28;20049;-54
2022/02/22 11:04:18;;;;;;;17.23;3.70;;;;;;;6.80;100.00;101543.84;5071999;28;20407;-54
2022/02/22 11:06:46;;;;;;;16.60;3.47;;;;;;;6.83;100.00;101537.66;5071968;28;20052;-54
2022/02/22 11:09:18;;;;;;;21.75;4.97;;;;;;;6.80;100.00;101525.53;5072104;28;20155;-55
2022/02/22 11:11:51;;;;;;;16.60;3.92;;;;;;;6.94;100.00;101527.66;5071647;28;20071;-56
2022/02/22 11:14:25;;;;;;;22.77;4.13;;;;;;;6.88;100.00;101510.41;5070575;28;20048;-55
2022/02/22 11:16:55;;;;;;;18.25;4.20;;;;;;;6.93;100.00;101503.22;5072771;28;20131;-56
2022/02/22 11:19:34;;;;;;;27.52;5.03;;;;;;;6.92;100.00;101504.13;5076007;28;20471;-55
2022/02/22 11:22:10;;;;;;;22.83;4.10;;;;;;;7.00;100.00;101498.63;5075617;28;20092;-56
2022/02/22 11:24:48;;;;;;;20.45;4.65;;;;;;;7.06;100.00;101507.97;5075770;28;20244;-55